Time;durP1;ratioP1;P1;durP2;ratioP2;P2;SDS_P1;SDS_P2;PMS_P1;PMS_P2;Temp;Humidity;BMP_temperature;BMP_pressure;BME280_temperature;BME280_humidity;BME280_pressure;Samples;Min_cycle;Max_cycle;Signal;HPM_P1;HPM_P2
2021/10/29 00:00:41;;;;;;;8.50;7.60;;;8.80;99.90;;;;;;5061570;28;20225;-52
2021/10/29 00:03:08;;;;;;;9.53;7.63;;;8.80;99.90;;;;;;5062096;28;20285;-51
2021/10/29 00:05:35;;;;;;;9.23;8.10;;;8.80;99.90;;;;;;5060158;28;20829;-52
2021/10/29 00:08:03;;;;;;;10.13;7.73;;;8.80;99.90;;;;;;5057703;28;20214;-52
2021/10/29 00:10:30;;;;;;;8.80;7.57;;;8.70;99.90;;;;;;5041490;28;20304;-53
2021/10/29 00:12:58;;;;;;;11.67;7.57;;;8.70;99.90;;;;;;5049425;28;20205;-53
2021/10/29 00:15:25;;;;;;;10.77;7.93;;;8.70;99.90;;;;;;5052217;28;20241;-52
2021/10/29 00:17:52;;;;;;;11.70;8.23;;;8.70;99.90;;;;;;5061776;28;20210;-48
2021/10/29 00:20:18;;;;;;;11.33;7.60;;;8.70;99.90;;;;;;5063731;28;20793;-48
2021/10/29 00:22:45;;;;;;;11.73;7.93;;;8.60;99.90;;;;;;5066153;28;20558;-50
2021/10/29 00:25:12;;;;;;;10.03;8.63;;;8.60;99.90;;;;;;5059043;28;20222;-50
2021/10/29 00:27:39;;;;;;;10.47;8.87;;;8.60;99.90;;;;;;5041224;28;20191;-51
2021/10/29 00:30:09;;;;;;;10.80;8.37;;;8.60;99.90;;;;;;5060256;28;20198;-50
2021/10/29 00:32:36;;;;;;;8.93;8.03;;;8.60;99.90;;;;;;5053959;28;20817;-53
2021/10/29 00:35:02;;;;;;;9.70;8.43;;;8.60;99.90;;;;;;5066820;28;20669;-50
2021/10/29 00:37:30;;;;;;;9.30;8.30;;;8.60;99.90;;;;;;5062830;28;20186;-50
2021/10/29 00:39:57;;;;;;;9.83;8.57;;;8.60;99.90;;;;;;5061295;28;20772;-47
2021/10/29 00:42:24;;;;;;;9.87;8.37;;;8.60;99.90;;;;;;5045391;28;20214;-53
2021/10/29 00:44:50;;;;;;;9.67;7.90;;;8.60;99.90;;;;;;5055157;28;20298;-53
2021/10/29 00:47:18;;;;;;;11.33;8.87;;;8.60;99.90;;;;;;5056929;28;20209;-47
2021/10/29 00:49:45;;;;;;;10.40;8.53;;;8.50;99.90;;;;;;5065866;28;20206;-50
2021/10/29 00:52:11;;;;;;;13.37;9.20;;;8.50;99.90;;;;;;5064653;28;20201;-50
2021/10/29 00:54:38;;;;;;;9.17;8.20;;;8.50;99.90;;;;;;5055897;28;20921;-51
2021/10/29 00:57:05;;;;;;;11.03;8.57;;;8.50;99.90;;;;;;5064772;28;20210;-48
2021/10/29 00:59:31;;;;;;;11.27;8.90;;;8.50;99.90;;;;;;5037264;28;20202;-51
2021/10/29 01:01:58;;;;;;;13.33;9.07;;;8.50;99.90;;;;;;5062942;28;20610;-48
2021/10/29 01:04:27;;;;;;;10.33;8.90;;;8.50;99.90;;;;;;5052648;28;20218;-50
2021/10/29 01:06:54;;;;;;;10.07;8.50;;;8.60;99.90;;;;;;5045695;28;20195;-47
2021/10/29 01:09:20;;;;;;;10.43;8.83;;;8.50;99.90;;;;;;5054924;28;20195;-47
2021/10/29 01:11:47;;;;;;;10.00;8.27;;;8.50;99.90;;;;;;5062582;28;20214;-47
2021/10/29 01:14:14;;;;;;;9.50;8.47;;;8.40;99.90;;;;;;5040984;28;20229;-47
2021/10/29 01:16:40;;;;;;;9.20;8.17;;;8.40;99.90;;;;;;5039698;28;20199;-47
2021/10/29 01:19:08;;;;;;;10.03;8.93;;;8.40;99.90;;;;;;5054248;28;20187;-49
2021/10/29 01:21:36;;;;;;;10.43;8.30;;;8.40;99.90;;;;;;5052072;28;20219;-48
2021/10/29 01:24:03;;;;;;;11.83;8.87;;;8.40;99.90;;;;;;5049375;28;20272;-47
2021/10/29 01:26:30;;;;;;;11.00;8.97;;;8.40;99.90;;;;;;5051348;28;20198;-48
2021/10/29 01:28:57;;;;;;;12.07;9.13;;;8.40;99.90;;;;;;5029119;28;20252;-50
2021/10/29 01:31:24;;;;;;;12.47;8.83;;;8.40;99.90;;;;;;5050913;28;20252;-49
2021/10/29 01:33:51;;;;;;;11.20;9.30;;;8.40;99.90;;;;;;5048820;28;20707;-50
2021/10/29 01:36:18;;;;;;;10.63;9.27;;;8.40;99.90;;;;;;5060565;28;20195;-51
2021/10/29 01:38:48;;;;;;;10.37;8.83;;;8.40;99.90;;;;;;5057651;28;20198;-50
2021/10/29 01:41:15;;;;;;;11.83;9.10;;;8.30;99.90;;;;;;5046993;28;20271;-51
2021/10/29 01:43:43;;;;;;;11.77;9.30;;;8.30;99.90;;;;;;5040983;28;20691;-48
2021/10/29 01:46:10;;;;;;;13.87;10.17;;;8.20;99.90;;;;;;5050380;28;20209;-49
2021/10/29 01:48:41;;;;;;;9.97;8.70;;;8.20;99.90;;;;;;5045527;28;20206;-49
2021/10/29 01:51:08;;;;;;;12.10;9.77;;;8.20;99.90;;;;;;5057167;28;20186;-51
2021/10/29 01:53:35;;;;;;;11.27;9.10;;;8.20;99.90;;;;;;5061983;28;20222;-47
2021/10/29 01:56:03;;;;;;;11.37;9.27;;;8.10;99.90;;;;;;5061988;28;20942;-46
2021/10/29 01:58:30;;;;;;;10.77;9.67;;;8.10;99.90;;;;;;5053652;28;20282;-50
2021/10/29 02:00:57;;;;;;;11.23;9.93;;;8.10;99.90;;;;;;5040726;28;20217;-47
2021/10/29 02:03:24;;;;;;;13.60;9.20;;;8.10;99.90;;;;;;5059719;28;20206;-51
2021/10/29 02:05:51;;;;;;;11.93;9.13;;;8.10;99.90;;;;;;5042359;28;20204;-50
2021/10/29 02:08:19;;;;;;;12.23;9.63;;;8.10;99.90;;;;;;5060584;28;20222;-50
2021/10/29 02:10:46;;;;;;;10.77;9.67;;;8.10;99.90;;;;;;5062236;28;20652;-49
2021/10/29 02:13:14;;;;;;;12.00;9.20;;;8.00;99.90;;;;;;5058300;28;20199;-49
2021/10/29 02:15:41;;;;;;;14.97;10.30;;;8.00;99.90;;;;;;5033187;28;20203;-53
2021/10/29 02:18:07;;;;;;;16.23;10.77;;;8.00;99.90;;;;;;5057777;28;20195;-49
2021/10/29 02:20:34;;;;;;;13.80;10.20;;;7.90;99.90;;;;;;5053091;28;20583;-47
2021/10/29 02:23:00;;;;;;;13.10;10.50;;;8.00;99.90;;;;;;5050527;28;20182;-51
2021/10/29 02:25:27;;;;;;;15.10;9.57;;;7.90;99.90;;;;;;5051677;28;20218;-49
2021/10/29 02:27:54;;;;;;;12.87;9.53;;;7.90;99.90;;;;;;5052655;28;20194;-49
2021/10/29 02:30:22;;;;;;;16.73;10.40;;;7.90;99.90;;;;;;5043148;28;20218;-49
2021/10/29 02:32:48;;;;;;;14.13;9.83;;;7.90;99.90;;;;;;5053960;28;20195;-50
2021/10/29 02:35:15;;;;;;;13.70;10.30;;;7.90;99.90;;;;;;5058613;28;20218;-50
2021/10/29 02:37:42;;;;;;;12.83;10.77;;;7.90;99.90;;;;;;5056382;28;20199;-51
2021/10/29 02:40:10;;;;;;;14.37;10.27;;;7.90;99.90;;;;;;5058264;28;20210;-49
2021/10/29 02:42:36;;;;;;;13.87;10.40;;;7.80;99.90;;;;;;5057969;28;20561;-47
2021/10/29 02:45:03;;;;;;;12.60;9.67;;;7.80;99.90;;;;;;5052260;28;20226;-50
2021/10/29 02:47:31;;;;;;;12.17;10.47;;;7.80;99.90;;;;;;5036854;28;20223;-48
2021/10/29 02:49:58;;;;;;;15.57;11.23;;;7.80;99.90;;;;;;5055624;28;20195;-50
2021/10/29 02:52:24;;;;;;;14.70;10.93;;;7.80;99.90;;;;;;5059905;28;20547;-47
2021/10/29 02:54:51;;;;;;;14.40;10.57;;;7.80;99.90;;;;;;5059648;28;20276;-49
2021/10/29 02:57:18;;;;;;;15.97;10.90;;;7.80;99.90;;;;;;5063843;28;20692;-49
2021/10/29 02:59:45;;;;;;;16.03;10.70;;;7.80;99.90;;;;;;5058619;28;20694;-50
2021/10/29 03:02:12;;;;;;;13.03;10.87;;;7.70;99.90;;;;;;5040578;28;20366;-54
2021/10/29 03:04:39;;;;;;;12.23;10.07;;;7.80;99.90;;;;;;5056518;28;20233;-51
2021/10/29 03:07:06;;;;;;;12.97;10.80;;;7.70;99.90;;;;;;5051572;28;20198;-51
2021/10/29 03:09:33;;;;;;;14.97;11.50;;;7.70;99.90;;;;;;5044493;28;20619;-54
2021/10/29 03:12:00;;;;;;;13.03;10.10;;;7.70;99.90;;;;;;5054565;28;20223;-48
2021/10/29 03:14:26;;;;;;;11.80;9.57;;;7.70;99.90;;;;;;5058320;28;20226;-50
2021/10/29 03:16:53;;;;;;;11.37;9.33;;;7.60;99.90;;;;;;5031346;28;20203;-53
2021/10/29 03:19:20;;;;;;;12.23;9.80;;;7.60;99.90;;;;;;5048232;28;20202;-49
2021/10/29 03:21:48;;;;;;;12.53;10.33;;;7.50;99.90;;;;;;5059007;28;20230;-46
2021/10/29 03:24:15;;;;;;;15.10;10.17;;;7.40;99.90;;;;;;5063258;28;20210;-53
2021/10/29 03:26:41;;;;;;;13.93;10.00;;;7.40;99.90;;;;;;5061390;28;20203;-52
2021/10/29 03:29:08;;;;;;;13.03;10.00;;;7.40;99.90;;;;;;5061761;28;20187;-51
2021/10/29 03:31:34;;;;;;;13.10;9.87;;;7.40;99.90;;;;;;5053215;28;20797;-50
2021/10/29 03:34:01;;;;;;;17.10;11.07;;;7.40;99.90;;;;;;5037561;28;20229;-54
2021/10/29 03:36:28;;;;;;;14.60;11.57;;;7.30;99.90;;;;;;5062073;28;20285;-53
2021/10/29 03:38:59;;;;;;;12.83;10.40;;;7.30;99.90;;;;;;5051449;28;20194;-52
2021/10/29 03:41:28;;;;;;;15.70;11.60;;;7.30;99.90;;;;;;5056524;28;20218;-48
2021/10/29 03:43:58;;;;;;;15.17;11.63;;;7.20;99.90;;;;;;5059060;28;20210;-55
2021/10/29 03:46:26;;;;;;;17.37;11.30;;;7.20;99.90;;;;;;5054357;28;20225;-55
2021/10/29 03:49:01;;;;;;;17.47;11.83;;;7.20;99.90;;;;;;5029448;28;20853;-48
2021/10/29 03:51:31;;;;;;;15.63;11.27;;;7.20;99.90;;;;;;5052659;28;20273;-54
2021/10/29 03:54:03;;;;;;;20.50;12.10;;;7.20;99.90;;;;;;5047558;28;20316;-53
2021/10/29 03:56:30;;;;;;;18.63;12.20;;;7.20;99.90;;;;;;5063233;28;20293;-52
2021/10/29 03:58:59;;;;;;;17.60;11.30;;;7.10;99.90;;;;;;5059386;28;20807;-53
2021/10/29 04:01:26;;;;;;;19.50;12.50;;;7.10;99.90;;;;;;5048498;28;20712;-52
2021/10/29 04:03:53;;;;;;;17.63;13.03;;;7.10;99.90;;;;;;5037298;28;20230;-55
2021/10/29 04:06:20;;;;;;;17.83;13.30;;;7.00;99.90;;;;;;5054673;28;20277;-54
2021/10/29 04:08:46;;;;;;;16.97;12.03;;;7.00;99.90;;;;;;5049075;28;20211;-50
2021/10/29 04:11:20;;;;;;;17.67;12.83;;;7.00;99.90;;;;;;5053903;28;20194;-51
2021/10/29 04:13:47;;;;;;;18.03;12.57;;;7.00;99.90;;;;;;5054378;28;20219;-50
2021/10/29 04:16:14;;;;;;;16.03;12.67;;;7.00;99.90;;;;;;5048371;28;20233;-48
2021/10/29 04:18:40;;;;;;;18.93;13.53;;;7.00;99.90;;;;;;5044297;28;20279;-54
2021/10/29 04:21:07;;;;;;;20.27;12.77;;;7.00;99.90;;;;;;5035195;28;20225;-51
2021/10/29 04:23:34;;;;;;;17.70;12.87;;;6.90;99.90;;;;;;5047231;28;20219;-49
2021/10/29 04:26:01;;;;;;;20.13;14.00;;;6.90;99.90;;;;;;5050499;28;20567;-49
2021/10/29 04:28:29;;;;;;;23.00;13.87;;;6.90;99.90;;;;;;5047437;28;20203;-51
2021/10/29 04:30:59;;;;;;;19.73;13.43;;;6.90;99.90;;;;;;5056638;28;20547;-52
2021/10/29 04:33:26;;;;;;;18.70;14.30;;;6.80;99.90;;;;;;5056747;28;20214;-53
2021/10/29 04:35:54;;;;;;;18.13;12.77;;;6.80;99.90;;;;;;5035349;28;20681;-52
2021/10/29 04:38:21;;;;;;;19.70;13.57;;;6.80;99.90;;;;;;5048187;28;20199;-48
2021/10/29 04:40:50;;;;;;;18.80;14.30;;;6.80;99.90;;;;;;5043874;28;20253;-52
2021/10/29 04:43:17;;;;;;;19.17;14.00;;;6.70;99.90;;;;;;5057852;28;20729;-54
2021/10/29 04:45:45;;;;;;;19.20;13.63;;;6.70;99.90;;;;;;5049102;28;20896;-51
2021/10/29 04:48:12;;;;;;;21.80;14.17;;;6.70;99.90;;;;;;5059233;28;20209;-51
2021/10/29 04:50:39;;;;;;;20.47;13.63;;;6.70;99.90;;;;;;5035098;28;20204;-49
2021/10/29 04:53:06;;;;;;;20.60;13.70;;;6.60;99.90;;;;;;5050947;28;20206;-48
2021/10/29 04:55:33;;;;;;;22.43;14.97;;;6.60;99.90;;;;;;5040645;28;20298;-50
2021/10/29 04:57:59;;;;;;;20.97;15.00;;;6.60;99.90;;;;;;5051851;28;20661;-47
2021/10/29 05:00:26;;;;;;;19.87;13.83;;;6.60;99.90;;;;;;5052560;28;20221;-49
2021/10/29 05:02:54;;;;;;;19.90;14.00;;;6.60;99.90;;;;;;5064934;28;20218;-50
2021/10/29 05:05:22;;;;;;;19.80;13.90;;;6.60;99.90;;;;;;5052161;28;20234;-49
2021/10/29 05:07:49;;;;;;;20.10;14.23;;;6.50;99.90;;;;;;5039165;28;20234;-51
2021/10/29 05:10:16;;;;;;;20.27;14.03;;;6.50;99.90;;;;;;5061346;28;20202;-51
2021/10/29 05:12:43;;;;;;;23.33;14.53;;;6.50;99.90;;;;;;5056845;28;20194;-50
2021/10/29 05:15:11;;;;;;;25.30;15.23;;;6.50;99.90;;;;;;5060990;28;20276;-51
2021/10/29 05:17:38;;;;;;;21.00;14.13;;;6.50;99.90;;;;;;5044437;28;20199;-48
2021/10/29 05:20:07;;;;;;;17.47;13.33;;;6.50;99.90;;;;;;5054166;28;20271;-51
2021/10/29 05:22:34;;;;;;;19.50;14.00;;;6.50;99.90;;;;;;5042344;28;20299;-49
2021/10/29 05:25:00;;;;;;;22.27;14.03;;;6.50;99.90;;;;;;5042688;28;20933;-49
2021/10/29 05:27:27;;;;;;;23.13;15.10;;;6.60;99.90;;;;;;5050286;28;20207;-51
2021/10/29 05:29:54;;;;;;;22.67;14.57;;;6.60;99.90;;;;;;5052008;28;20219;-46
2021/10/29 05:32:20;;;;;;;19.73;13.73;;;6.50;99.90;;;;;;5044498;28;20196;-50
2021/10/29 05:34:47;;;;;;;20.10;14.63;;;6.50;99.90;;;;;;5040748;28;20566;-52
2021/10/29 05:37:15;;;;;;;18.17;13.60;;;6.50;99.90;;;;;;5050504;28;20207;-50
2021/10/29 05:39:41;;;;;;;21.37;14.30;;;6.50;99.90;;;;;;5027839;28;20770;-44
2021/10/29 05:42:08;;;;;;;20.97;14.60;;;6.50;99.90;;;;;;5050223;28;20203;-44
2021/10/29 05:44:35;;;;;;;21.43;14.50;;;6.50;99.90;;;;;;5047397;28;20594;-45
2021/10/29 05:47:01;;;;;;;20.43;14.97;;;6.50;99.90;;;;;;5048729;28;20213;-49
2021/10/29 05:49:28;;;;;;;20.60;14.20;;;6.50;99.90;;;;;;5052322;28;20203;-50
2021/10/29 05:51:56;;;;;;;19.53;14.77;;;6.50;99.90;;;;;;5050935;28;20278;-49
2021/10/29 05:55:01;;;;;;;21.67;14.87;;;6.50;99.90;;;;;;5044473;28;20247;-52
2021/10/29 05:57:28;;;;;;;21.67;14.27;;;6.40;99.90;;;;;;5058176;28;20199;-52
2021/10/29 05:59:55;;;;;;;21.63;14.67;;;6.40;99.90;;;;;;5060974;28;20194;-45
2021/10/29 06:02:22;;;;;;;20.63;14.50;;;6.40;99.90;;;;;;5047950;28;20226;-43
2021/10/29 06:04:49;;;;;;;23.37;15.30;;;6.50;99.90;;;;;;5048948;28;20222;-46
2021/10/29 06:07:15;;;;;;;20.27;14.97;;;6.50;99.90;;;;;;5042430;28;20202;-43
2021/10/29 06:09:43;;;;;;;21.87;14.50;;;6.40;99.90;;;;;;5049420;28;20249;-49
2021/10/29 06:12:11;;;;;;;25.97;15.40;;;6.50;99.90;;;;;;5039300;28;20186;-49
2021/10/29 06:14:38;;;;;;;21.07;14.50;;;6.40;99.90;;;;;;5054506;28;20702;-47
2021/10/29 06:17:06;;;;;;;24.50;14.87;;;6.40;99.90;;;;;;5046593;28;20845;-48
2021/10/29 06:19:33;;;;;;;24.07;15.73;;;6.40;99.90;;;;;;5055337;28;20686;-46
2021/10/29 06:22:05;;;;;;;23.57;14.87;;;6.40;99.90;;;;;;5045684;28;20938;-46
2021/10/29 06:24:32;;;;;;;21.53;14.83;;;6.40;99.90;;;;;;5048505;28;20226;-47
2021/10/29 06:27:03;;;;;;;21.87;14.70;;;6.50;99.90;;;;;;5030623;28;20222;-50
2021/10/29 06:29:30;;;;;;;23.80;13.97;;;6.50;99.90;;;;;;5037473;28;20210;-49
2021/10/29 06:31:56;;;;;;;27.27;17.00;;;6.50;99.90;;;;;;5054176;28;20199;-45
2021/10/29 06:34:23;;;;;;;26.27;15.63;;;6.50;99.90;;;;;;5046321;28;20218;-47
2021/10/29 06:36:50;;;;;;;27.53;16.47;;;6.50;99.90;;;;;;5048754;28;20202;-49
2021/10/29 06:39:18;;;;;;;24.33;15.30;;;6.50;99.90;;;;;;5047750;28;20198;-47
2021/10/29 06:41:45;;;;;;;22.53;15.50;;;6.50;99.90;;;;;;5032355;28;20214;-45
2021/10/29 06:44:24;;;;;;;24.17;15.10;;;6.60;99.90;;;;;;5055491;28;20529;-47
2021/10/29 06:47:10;;;;;;;26.53;15.47;;;6.60;99.90;;;;;;5050026;28;20221;-46
2021/10/29 06:59:11;;;;;;;24.97;15.73;;;6.60;99.90;;;;;;5034156;28;20215;-46
2021/10/29 07:00:56;;;;;;;22.50;15.37;;;6.80;99.90;;;;;;5042428;28;20667;-48
2021/10/29 07:41:54;;;;;;;25.27;14.03;;;7.80;99.90;;;;;;5021895;28;20203;-45
2021/10/29 07:44:26;;;;;;;21.67;13.97;;;7.90;99.90;;;;;;5048906;28;20218;-47
2021/10/29 07:46:54;;;;;;;21.63;14.70;;;8.00;99.90;;;;;;5052109;28;20194;-48
2021/10/29 07:49:27;;;;;;;23.70;15.40;;;8.10;99.90;;;;;;5048807;28;20210;-45
2021/10/29 07:51:54;;;;;;;20.90;13.37;;;8.10;99.90;;;;;;5046156;28;20831;-44
2021/10/29 07:54:21;;;;;;;22.20;13.63;;;8.20;99.90;;;;;;5048423;28;20226;-49
2021/10/29 07:56:47;;;;;;;21.30;13.50;;;8.30;99.90;;;;;;5050197;28;20230;-44
2021/10/29 07:59:14;;;;;;;16.77;12.30;;;8.30;99.90;;;;;;5031604;28;20214;-50
2021/10/29 08:01:41;;;;;;;22.87;12.77;;;8.40;99.90;;;;;;5049717;28;20277;-48
2021/10/29 08:04:07;;;;;;;25.40;14.90;;;8.50;99.90;;;;;;5049328;28;20223;-50
2021/10/29 08:06:36;;;;;;;19.13;12.90;;;8.60;99.90;;;;;;5054431;28;20657;-49
2021/10/29 08:09:03;;;;;;;19.57;13.13;;;8.60;99.90;;;;;;5047633;28;20211;-46
2021/10/29 08:11:29;;;;;;;20.17;13.23;;;8.70;99.90;;;;;;5037105;28;20213;-50
2021/10/29 08:13:56;;;;;;;18.03;12.80;;;8.80;99.90;;;;;;5018580;28;20226;-47
2021/10/29 08:16:24;;;;;;;17.20;11.87;;;8.90;99.90;;;;;;5041204;28;20211;-49
2021/10/29 08:18:51;;;;;;;19.73;12.73;;;9.10;99.90;;;;;;5034878;28;20204;-49
2021/10/29 08:21:17;;;;;;;18.80;12.53;;;9.20;99.90;;;;;;5045158;28;20187;-47
2021/10/29 08:23:46;;;;;;;16.80;12.10;;;9.40;99.90;;;;;;5045956;28;20227;-47
2021/10/29 08:26:14;;;;;;;109.47;25.07;;;9.50;99.90;;;;;;5044289;28;20206;-46
2021/10/29 08:28:42;;;;;;;24.27;12.13;;;9.60;99.90;;;;;;5030536;28;20214;-46
2021/10/29 08:31:08;;;;;;;16.43;11.67;;;9.70;99.90;;;;;;5042137;28;20203;-46
2021/10/29 08:33:35;;;;;;;18.53;11.43;;;9.80;99.90;;;;;;5043143;28;20222;-47
2021/10/29 08:36:03;;;;;;;16.07;11.47;;;9.90;99.90;;;;;;5050231;28;20273;-49
2021/10/29 08:38:30;;;;;;;15.97;10.60;;;9.90;99.90;;;;;;5059326;28;20206;-46
2021/10/29 08:40:59;;;;;;;18.33;11.60;;;9.90;99.90;;;;;;5047563;28;20218;-52
2021/10/29 08:43:25;;;;;;;15.47;11.30;;;9.90;99.90;;;;;;5032881;28;20219;-51
2021/10/29 08:45:53;;;;;;;17.77;11.90;;;10.00;99.90;;;;;;5052569;28;20222;-49
2021/10/29 08:48:21;;;;;;;17.80;11.40;;;10.10;99.90;;;;;;5049449;28;20281;-48
2021/10/29 08:50:47;;;;;;;18.50;11.27;;;10.10;99.90;;;;;;5052987;28;20200;-49
2021/10/29 08:53:14;;;;;;;14.47;10.87;;;10.10;99.90;;;;;;5046703;28;20558;-47
2021/10/29 08:55:41;;;;;;;14.43;10.27;;;10.20;99.90;;;;;;5053399;28;20209;-51
2021/10/29 08:58:10;;;;;;;16.07;10.57;;;10.30;99.90;;;;;;5050240;28;20214;-48
2021/10/29 09:00:41;;;;;;;19.23;11.30;;;10.40;99.90;;;;;;5032571;28;22932;-49
2021/10/29 09:03:19;;;;;;;18.50;10.40;;;10.50;99.90;;;;;;5050916;28;20306;-47
2021/10/29 09:05:58;;;;;;;16.03;9.97;;;10.60;99.90;;;;;;5059177;28;20199;-46
2021/10/29 09:08:43;;;;;;;17.17;10.07;;;10.60;99.90;;;;;;5054284;28;20768;-47
2021/10/29 09:11:30;;;;;;;15.80;10.47;;;10.70;99.90;;;;;;5048154;28;20285;-48
2021/10/29 09:17:05;;;;;;;12.17;9.87;;;10.90;99.90;;;;;;5034382;28;20304;-46
2021/10/29 09:31:30;;;;;;;14.07;9.67;;;11.30;99.90;;;;;;5008341;28;23965;-46
2021/10/29 09:33:58;;;;;;;14.63;8.87;;;;;;;;;;5043294;28;20234;-48
2021/10/29 09:36:30;;;;;;;12.27;8.67;;;11.50;99.90;;;;;;5055486;28;20264;-49
2021/10/29 09:39:03;;;;;;;16.30;10.70;;;11.60;99.90;;;;;;5039754;28;20198;-50
2021/10/29 09:41:41;;;;;;;15.53;10.33;;;11.70;99.90;;;;;;5045111;28;20572;-47
2021/10/29 09:44:12;;;;;;;12.07;9.00;;;11.70;99.90;;;;;;5050736;28;20230;-50
2021/10/29 09:46:53;;;;;;;15.27;9.10;;;11.90;99.90;;;;;;5029222;28;20202;-51
2021/10/29 09:49:28;;;;;;;13.20;8.90;;;11.90;99.90;;;;;;5046095;28;20202;-47
2021/10/29 09:52:18;;;;;;;12.57;8.93;;;12.00;99.90;;;;;;5050222;28;20986;-48
2021/10/29 09:54:52;;;;;;;17.90;9.37;;;12.10;99.90;;;;;;5042165;28;20260;-48
2021/10/29 09:57:21;;;;;;;11.77;8.37;;;12.30;99.90;;;;;;5053284;28;20267;-49
2021/10/29 09:59:50;;;;;;;12.83;8.67;;;12.40;99.90;;;;;;5047978;28;20242;-46
2021/10/29 10:02:20;;;;;;;10.40;8.27;;;12.40;99.90;;;;;;5037871;28;20566;-49
2021/10/29 10:04:49;;;;;;;11.93;8.30;;;12.50;99.90;;;;;;5043897;28;20584;-46
2021/10/29 10:07:17;;;;;;;12.67;8.33;;;12.50;99.90;;;;;;5056900;28;20209;-48
2021/10/29 10:09:45;;;;;;;14.90;7.47;;;12.60;99.90;;;;;;5053423;28;20293;-45
2021/10/29 10:12:12;;;;;;;11.07;7.53;;;12.60;99.90;;;;;;5042133;28;20257;-48
2021/10/29 10:14:40;;;;;;;14.73;7.77;;;12.80;99.90;;;;;;5041948;28;20215;-46
2021/10/29 10:17:07;;;;;;;12.17;7.40;;;12.80;99.90;;;;;;5027387;28;22187;-46
2021/10/29 10:19:35;;;;;;;9.83;7.50;;;12.90;99.90;;;;;;5051003;28;20285;-45
2021/10/29 10:22:05;;;;;;;10.03;7.10;;;12.90;99.90;;;;;;5046380;28;20195;-48
2021/10/29 10:24:34;;;;;;;9.03;6.57;;;12.90;99.90;;;;;;5046989;28;20648;-45
2021/10/29 10:27:25;;;;;;;13.63;7.37;;;13.00;99.90;;;;;;5047751;28;20310;-47
2021/10/29 10:44:32;;;;;;;9.73;7.50;;;13.50;99.90;;;;;;5040099;28;20250;-49
2021/10/29 10:47:01;;;;;;;8.60;6.70;;;13.50;99.90;;;;;;5035289;28;20210;-45
2021/10/29 10:49:37;;;;;;;11.57;6.90;;;13.60;99.90;;;;;;5019314;28;20209;-46
2021/10/29 10:52:11;;;;;;;9.50;6.60;;;13.70;99.90;;;;;;5042709;28;20706;-46
2021/10/29 10:54:45;;;;;;;9.57;6.03;;;13.80;99.90;;;;;;5034908;28;20520;-45
2021/10/29 10:57:29;;;;;;;11.33;6.43;;;13.80;99.90;;;;;;5049707;28;20206;-46
2021/10/29 11:00:10;;;;;;;7.57;6.70;;;13.90;99.90;;;;;;5032798;28;20215;-48
2021/10/29 11:03:09;;;;;;;12.30;9.73;;;14.00;99.90;;;;;;5048300;28;20285;-46
2021/10/29 11:05:47;;;;;;;8.80;7.57;;;14.10;99.90;;;;;;5033232;28;22005;-48
2021/10/29 11:11:12;;;;;;;11.60;5.93;;;14.20;99.90;;;;;;5043943;28;20202;-49
2021/10/29 11:13:53;;;;;;;10.97;6.30;;;14.30;99.90;;;;;;5052921;28;20210;-46
2021/10/29 11:16:27;;;;;;;7.73;6.33;;;14.40;99.90;;;;;;5054981;28;20624;-47
2021/10/29 11:18:58;;;;;;;9.47;6.10;;;14.50;99.90;;;;;;5034514;28;20203;-51
2021/10/29 11:21:32;;;;;;;8.33;6.37;;;14.60;99.90;;;;;;5045428;28;20554;-46
2021/10/29 11:24:02;;;;;;;8.50;6.00;;;14.60;99.90;;;;;;5052484;28;20218;-44
2021/10/29 11:26:32;;;;;;;9.97;5.50;;;14.70;99.90;;;;;;5044923;28;20211;-41
2021/10/29 11:29:02;;;;;;;7.47;5.63;;;14.80;99.90;;;;;;5044384;28;20291;-43
2021/10/29 11:31:30;;;;;;;8.10;5.63;;;14.90;99.90;;;;;;5047701;28;20281;-43
2021/10/29 11:34:01;;;;;;;8.40;5.90;;;14.90;99.90;;;;;;5031352;28;20234;-45
2021/10/29 11:36:31;;;;;;;10.90;5.30;;;15.00;99.90;;;;;;5048915;28;21050;-43
2021/10/29 11:38:59;;;;;;;6.20;5.40;;;15.10;99.90;;;;;;5045708;28;20194;-44
2021/10/29 11:41:31;;;;;;;7.00;5.00;;;15.10;99.90;;;;;;5049481;28;20205;-44
2021/10/29 11:44:02;;;;;;;7.20;5.10;;;15.20;99.90;;;;;;5047242;28;20509;-42
2021/10/29 11:46:31;;;;;;;6.87;4.67;;;15.30;99.90;;;;;;5048143;28;20275;-43
2021/10/29 11:49:01;;;;;;;5.90;5.07;;;15.40;99.90;;;;;;5046601;28;20296;-41
2021/10/29 11:51:29;;;;;;;7.10;4.80;;;15.50;99.90;;;;;;5030319;28;20248;-42
2021/10/29 11:54:00;;;;;;;6.70;5.30;;;15.60;99.90;;;;;;5044937;28;20218;-48
2021/10/29 11:56:34;;;;;;;6.00;4.73;;;15.70;99.90;;;;;;5049434;28;20671;-43
2021/10/29 11:59:24;;;;;;;6.40;4.80;;;;;;;;;;5056445;28;20186;-45
2021/10/29 12:01:56;;;;;;;6.00;5.33;;;15.80;99.90;;;;;;5043271;28;20197;-47
2021/10/29 12:07:17;;;;;;;6.10;5.13;;;15.90;99.90;;;;;;5036506;28;20202;-44
2021/10/29 12:09:45;;;;;;;5.53;4.90;;;15.90;99.90;;;;;;5036497;28;20207;-45
2021/10/29 12:12:15;;;;;;;8.17;4.97;;;15.90;99.90;;;;;;5033998;28;20579;-45
2021/10/29 12:14:45;;;;;;;8.07;5.67;;;16.00;99.90;;;;;;5040065;28;20286;-43
2021/10/29 12:17:16;;;;;;;5.83;4.97;;;16.00;99.90;;;;;;5048672;28;20196;-44
2021/10/29 12:19:45;;;;;;;4.80;4.40;;;16.00;99.90;;;;;;5043133;28;20749;-43
2021/10/29 12:22:25;;;;;;;9.23;4.70;;;16.10;99.90;;;;;;5030902;28;20215;-45
2021/10/29 12:24:54;;;;;;;4.83;4.43;;;16.20;99.90;;;;;;5034423;28;20209;-43
2021/10/29 12:27:27;;;;;;;5.90;4.20;;;16.20;99.90;;;;;;5039064;28;20206;-42
2021/10/29 12:30:20;;;;;;;6.70;4.50;;;16.30;99.90;;;;;;5039597;28;20191;-46
2021/10/29 12:38:39;;;;;;;5.23;4.27;;;16.40;99.90;;;;;;5031773;28;20203;-43
2021/10/29 13:03:55;;;;;;;4.90;4.07;;;16.10;99.90;;;;;;5036023;28;20921;-43
2021/10/29 13:06:22;;;;;;;4.73;3.93;;;16.00;99.90;;;;;;5039406;28;20278;-47
2021/10/29 13:08:50;;;;;;;5.73;4.03;;;16.00;99.90;;;;;;5030332;28;20230;-44
2021/10/29 13:11:19;;;;;;;4.13;3.53;;;16.00;99.90;;;;;;5048836;28;20203;-42
2021/10/29 13:13:52;;;;;;;5.30;3.40;;;16.00;99.90;;;;;;5044786;28;20199;-43
2021/10/29 13:16:20;;;;;;;4.00;3.67;;;16.00;99.90;;;;;;5050753;28;20775;-43
2021/10/29 13:19:04;;;;;;;3.90;3.50;;;15.90;99.90;;;;;;5043417;28;20223;-47
2021/10/29 13:22:29;;;;;;;4.40;4.00;;;16.00;99.90;;;;;;5053358;28;20211;-43
2021/10/29 13:28:12;;;;;;;5.07;3.30;;;16.00;99.90;;;;;;5049646;28;20249;-42
2021/10/29 13:36:33;;;;;;;4.70;3.27;;;16.30;99.90;;;;;;5018407;28;20214;-45
2021/10/29 13:50:36;;;;;;;5.67;3.33;;;16.70;99.90;;;;;;5041400;28;20183;-42
2021/10/29 13:55:56;;;;;;;6.63;2.93;;;17.00;99.90;;;;;;5033103;28;20222;-45
2021/10/29 13:58:42;;;;;;;4.23;3.27;;;17.20;99.90;;;;;;5054516;28;20205;-46
2021/10/29 14:01:28;;;;;;;4.60;3.00;;;17.40;99.90;;;;;;5059251;28;20202;-43
2021/10/29 14:28:46;;;;;;;3.10;2.90;;;16.80;99.90;;;;;;5040196;28;20210;-48
2021/10/29 14:31:18;;;;;;;3.27;2.53;;;16.60;99.90;;;;;;5055663;28;20210;-43
2021/10/29 14:33:50;;;;;;;4.63;3.47;;;16.40;99.90;;;;;;5054269;28;20211;-43
2021/10/29 14:36:19;;;;;;;2.87;2.40;;;16.30;99.90;;;;;;5056249;28;20334;-45
2021/10/29 14:41:37;;;;;;;5.27;2.80;;;16.20;99.90;;;;;;5054171;28;20215;-44
2021/10/29 14:44:09;;;;;;;5.27;2.77;;;16.10;99.90;;;;;;5036005;28;20844;-42
2021/10/29 14:46:55;;;;;;;4.53;2.53;;;15.90;99.90;;;;;;5034448;28;20280;-45
2021/10/29 14:49:32;;;;;;;2.97;2.73;;;15.90;99.90;;;;;;5042969;28;20209;-43
2021/10/29 15:00:41;;;;;;;3.47;2.70;;;15.50;99.90;;;;;;5044505;28;20195;-45
2021/10/29 15:03:44;;;;;;;3.50;2.40;;;15.40;99.90;;;;;;5048083;28;20202;-45
2021/10/29 15:17:29;;;;;;;2.47;2.10;;;15.00;99.90;;;;;;5053198;28;20178;-42
2021/10/29 15:28:18;;;;;;;3.87;2.60;;;14.80;99.90;;;;;;5027914;28;20237;-41
2021/10/29 15:30:49;;;;;;;4.63;2.80;;;14.70;99.90;;;;;;5040560;28;20196;-44
2021/10/29 15:33:30;;;;;;;2.60;2.40;;;14.70;99.90;;;;;;5041170;28;20194;-45
2021/10/29 15:41:44;;;;;;;5.30;2.70;;;14.60;99.90;;;;;;5048192;28;20280;-43
2021/10/29 15:44:15;;;;;;;5.03;2.77;;;14.50;99.90;;;;;;5026342;28;20222;-45
2021/10/29 15:46:46;;;;;;;4.13;2.50;;;14.50;99.90;;;;;;5056658;28;20215;-44
2021/10/29 15:52:03;;;;;;;4.27;2.67;;;14.30;99.90;;;;;;5038238;28;20211;-47
2021/10/29 15:54:32;;;;;;;3.37;2.60;;;14.30;99.90;;;;;;5048570;28;20337;-46
2021/10/29 15:57:02;;;;;;;5.83;2.73;;;14.30;99.90;;;;;;5047971;28;20217;-45
2021/10/29 15:59:36;;;;;;;3.77;2.53;;;14.20;99.90;;;;;;5038464;28;20285;-45
2021/10/29 16:02:16;;;;;;;3.57;2.40;;;14.20;99.90;;;;;;5035599;28;20230;-41
2021/10/29 16:18:27;;;;;;;4.83;3.10;;;13.90;99.90;;;;;;5044050;28;20227;-44
2021/10/29 16:20:53;;;;;;;4.80;3.10;;;13.90;99.90;;;;;;5047118;28;20206;-45
2021/10/29 16:23:25;;;;;;;3.40;2.60;;;13.90;99.90;;;;;;5043119;28;20194;-44
2021/10/29 16:25:54;;;;;;;6.47;2.80;;;13.90;99.90;;;;;;5051650;28;20226;-46
2021/10/29 16:28:26;;;;;;;3.03;2.70;;;13.80;99.90;;;;;;5051935;28;20282;-47